L57 weather

Hidden Hills Airport
Pahrump, Nevada, United States

Public forecast

Using degrees Fahrenheit for public forecast. Weather courtesy of forecast.io.

Closest aviation weather report (METAR) to Hidden Hills Airport

Closest report is North Las Vegas Airport, 34.7 nm (64.2 km) ENE. Retrieved 2020/01/27 10:53 UTC (52 minutes ago):

KVGT 271053Z AUTO 33008KT 10SM CLR 13/M03 A3013 RMK AO2 SLP213 T01281028

Closest aviation forecast (TAF) to Hidden Hills Airport

Closest forecast is North Las Vegas Airport, 34.7 nm (64.2 km) ENE. Retrieved 2020/01/27 06:36 UTC (5 hours ago):

TAF KVGT 270533Z 2706/2806 34007KT P6SM SKC FM271100 34014G22KT P6SM SKC FM272200 35010KT P6SM SCT250